LPMALPPR

Guest
Details From LPMA - Madeira
To LPPR - Porto
Flight Number -
Tags decoded
Created
Modified
Stats Distance 647 nm / 1,198 km
Max Altitude 0 ft / 0 m
Waypoints 3
Social Downloads 2
Likes 0
Share VATSIM

Download

Looking for another format? Having issues loading an existing format? Contact us
Advertisement - Login to hide

Notes

Requested: LPMA N0444F380 DEGUN3S DEGUN LAVPA LAVPA9M LPPR Unmatched points: N0444F380 DEGUN3S LAVPA LAVPA9M

Route

LPMA DEGUN LPPR

ID Type Via Altitude Latitude Longitude Leg Dist Tot Dist Heading (true) Name
O LPMA APT - 0 ft / 0 m 32.69770˚ -16.77445˚ - 0 nm - Madeira
DEGUN FIX - 0 ft / 0 m 33.41861˚ -15.65833˚ 70 nm 70 nm 52° / 53° -
O LPPR APT - 0 ft / 0 m 41.24793˚ -8.68122˚ 575 nm 646 nm 33° / 37° Porto

Altitude Profile

Advertisement - Login to hide

Weather


0- 5 10 15 20 25 30 35+ Temperature / ° C

Clouds and Precipitation
Forecast for 2017-12-12 00:00 UTC. Updated 17 minutes ago

Ground ~20,000 ft ~40,000 ft Winds

LPMA

Details ICAO LPMA (FNC)
Name Madeira
Region Portugal
Timezone Atlantic/Madeira (UTC+0.0)
Stats Elevation 192 ft / 59 m (AMSL)
Location 32.697704° -16.774449°
Runways 1
Magnetic Variation 4.983° W

METAR

LPMA 112330Z 01014G24KT 320V040 9999 SCT014 FEW016TCU 17/09 Q1019

Decode

TAF

TAF LPMA 111700Z 1118/1218 02020KT 9999 SCT016 TEMPO 1118/1218 02025G35KT

Decode

Departure Runways

ID Width Length Bearing (true) Bearing (mag) Surface Threshold Offset Overrun Length
05 141 ft / 43 m 8,683 ft / 2,647 m 42.98° 47.96° Asphalt 472 ft / 144 m 0 ft / 0 m
23 141 ft / 43 m 8,683 ft / 2,647 m 222.99° 227.97° Asphalt 466 ft / 142 m 0 ft / 0 m

LPPR

Details ICAO LPPR (OPO)
Name Porto
Region Portugal
Timezone Europe/Lisbon (UTC+0.0)
Stats Elevation 228 ft / 69 m (AMSL)
Location 41.247932° -8.681221°
Runways 1
Magnetic Variation 2.340° W

METAR

LPPR 112330Z 00000KT 9999 SCT040 05/03 Q1014

Decode

TAF

TAF LPPR 111700Z 1118/1218 35013KT 9999 FEW025 TEMPO 1118/1121 8000 SHRA SCT010 BKN015 FEW018CB BECMG 1118/1121 09005KT BECMG 1209/1212 VRB03KT TEMPO 1213/1217 32005KT

Decode

Destination Runways

ID Width Length Bearing (true) Bearing (mag) Surface Threshold Offset Overrun Length
17 148 ft / 45 m 11,451 ft / 3,490 m 168.88° 171.22° Asphalt 984 ft / 300 m 220 ft / 67 m
35 148 ft / 45 m 11,451 ft / 3,490 m 348.89° 351.23° Asphalt 492 ft / 150 m 370 ft / 113 m

Approach Navaids

Runway Type Ident Frequency Range Bearing (true) Bearing (mag) Slope Elevation
17 Localiser PR 109.90 MHz 18 nm / 33 km 168.87° 171.21° - 228 ft / 69 m (AMSL)
17 Glidescope PR 109.90 MHz 10 nm / 19 km 168.88° 171.22° 2.72° 228 ft / 69 m (AMSL)
17 DME PR 109.90 MHz 18 nm / 33 km - - - 228 ft / 69 m (AMSL)

Popular Alternatives